createdAt,value
2023-09-03T00:00:00.555Z,79.01
2023-09-03T00:00:21.631Z,79.03
2023-09-03T00:00:42.701Z,79.05
2023-09-03T00:01:04.017Z,79.07
2023-09-03T00:01:25.093Z,79.08
2023-09-03T00:01:46.141Z,79.09
2023-09-03T00:02:07.234Z,79.06
2023-09-03T00:02:28.275Z,79.08
2023-09-03T00:02:49.615Z,79.19
2023-09-03T00:03:10.811Z,79.26
2023-09-03T00:03:31.997Z,79.22
2023-09-03T00:03:53.103Z,79.25
2023-09-03T00:04:14.169Z,79.25
2023-09-03T00:04:35.234Z,79.30
2023-09-03T00:04:56.293Z,79.25
2023-09-03T00:05:17.351Z,79.22
2023-09-03T00:05:38.404Z,79.14
2023-09-03T00:05:59.452Z,79.17
2023-09-03T00:06:20.510Z,79.15
2023-09-03T00:06:41.563Z,79.18
2023-09-03T00:07:02.626Z,79.29
2023-09-03T00:07:23.674Z,79.34
2023-09-03T00:07:44.737Z,79.44
2023-09-03T00:08:05.830Z,79.46
2023-09-03T00:08:27.069Z,79.41
2023-09-03T00:08:48.132Z,79.39
2023-09-03T00:09:09.198Z,79.31
2023-09-03T00:09:30.241Z,79.28
2023-09-03T00:09:51.299Z,79.29
2023-09-03T00:10:12.380Z,79.26
2023-09-03T00:10:34.070Z,79.32
2023-09-03T00:10:55.094Z,79.38
2023-09-03T00:11:16.162Z,79.50
2023-09-03T00:11:37.235Z,79.64
2023-09-03T00:11:58.292Z,79.70
2023-09-03T00:12:19.351Z,79.83
2023-09-03T00:12:40.423Z,79.87
2023-09-03T00:13:01.484Z,79.88
2023-09-03T00:13:22.556Z,79.87
2023-09-03T00:13:43.610Z,79.82
2023-09-03T00:14:04.672Z,79.79
2023-09-03T00:14:25.724Z,79.77
2023-09-03T00:14:46.827Z,79.82
2023-09-03T00:15:07.867Z,79.78
2023-09-03T00:15:28.928Z,79.69
2023-09-03T00:15:49.983Z,79.76
2023-09-03T00:16:11.101Z,79.77
2023-09-03T00:16:32.184Z,79.78
2023-09-03T00:16:53.257Z,79.77
2023-09-03T00:17:14.305Z,79.87
2023-09-03T00:17:35.400Z,79.90
2023-09-03T00:17:56.485Z,79.88
2023-09-03T00:18:17.588Z,79.90
2023-09-03T00:18:38.651Z,79.87
2023-09-03T00:18:59.773Z,79.75
2023-09-03T00:19:20.837Z,79.68
2023-09-03T00:19:41.907Z,79.67
2023-09-03T00:20:02.951Z,79.61
2023-09-03T00:20:24.017Z,79.61
2023-09-03T00:20:45.070Z,79.59
2023-09-03T00:21:06.133Z,79.55
2023-09-03T00:21:27.190Z,79.59
2023-09-03T00:21:48.330Z,79.52
2023-09-03T00:22:09.396Z,79.50
2023-09-03T00:22:30.469Z,79.51
2023-09-03T00:22:51.522Z,79.64
2023-09-03T00:23:12.581Z,79.66
2023-09-03T00:23:33.632Z,79.68
2023-09-03T00:23:54.687Z,79.65
2023-09-03T00:24:15.756Z,79.70
2023-09-03T00:24:36.834Z,79.69
2023-09-03T00:24:57.873Z,79.71
2023-09-03T00:25:18.933Z,79.72
2023-09-03T00:25:39.987Z,79.62
2023-09-03T00:26:01.076Z,79.60
2023-09-03T00:26:22.221Z,79.42
2023-09-03T00:26:43.275Z,79.22
2023-09-03T00:27:04.342Z,79.19
2023-09-03T00:27:25.408Z,79.15
2023-09-03T00:27:46.474Z,79.14
2023-09-03T00:28:07.522Z,79.14
2023-09-03T00:28:28.585Z,79.20
2023-09-03T00:28:49.635Z,79.29
2023-09-03T00:29:10.709Z,79.24
2023-09-03T00:29:31.753Z,79.21
2023-09-03T00:29:52.825Z,79.20
2023-09-03T00:30:13.970Z,79.13
2023-09-03T00:30:35.080Z,79.18
2023-09-03T00:30:56.173Z,79.17
2023-09-03T00:31:17.243Z,79.16
2023-09-03T00:31:38.290Z,79.16
2023-09-03T00:31:59.361Z,79.25
2023-09-03T00:32:20.509Z,79.24
2023-09-03T00:32:41.652Z,79.28
2023-09-03T00:33:02.749Z,79.30
2023-09-03T00:33:23.853Z,79.24
2023-09-03T00:33:44.927Z,79.26
2023-09-03T00:34:05.990Z,79.24
2023-09-03T00:34:27.045Z,79.30
2023-09-03T00:34:48.104Z,79.27
2023-09-03T00:35:09.174Z,79.22
2023-09-03T00:35:30.219Z,79.16
2023-09-03T00:35:51.285Z,79.09
2023-09-03T00:36:12.426Z,79.11
2023-09-03T00:36:33.485Z,79.13
2023-09-03T00:36:54.558Z,79.11
2023-09-03T00:37:15.605Z,79.24
2023-09-03T00:37:36.666Z,79.28
2023-09-03T00:37:57.733Z,79.34
2023-09-03T00:38:19.033Z,79.39
2023-09-03T00:38:40.229Z,79.34
2023-09-03T00:39:01.276Z,79.30
2023-09-03T00:39:22.339Z,79.24
2023-09-03T00:39:43.397Z,79.21
2023-09-03T00:40:04.449Z,79.23
2023-09-03T00:40:25.605Z,79.26
2023-09-03T00:40:46.663Z,79.23
2023-09-03T00:41:07.722Z,79.22
2023-09-03T00:41:28.803Z,79.25
2023-09-03T00:41:49.847Z,79.29
2023-09-03T00:42:10.905Z,79.30
2023-09-03T00:42:31.972Z,79.35
2023-09-03T00:42:53.024Z,79.36
2023-09-03T00:43:14.088Z,79.35
2023-09-03T00:43:35.276Z,79.38
2023-09-03T00:43:56.348Z,79.38
2023-09-03T00:44:17.398Z,79.44
2023-09-03T00:44:38.460Z,79.46
2023-09-03T00:44:59.519Z,79.46
2023-09-03T00:45:20.578Z,79.52
2023-09-03T00:45:41.657Z,79.56
2023-09-03T00:46:02.729Z,79.59
2023-09-03T00:46:23.769Z,79.59
2023-09-03T00:46:44.816Z,79.59
2023-09-03T00:47:05.878Z,79.54
2023-09-03T00:47:26.944Z,79.52
2023-09-03T00:47:48.045Z,79.48
2023-09-03T00:48:09.093Z,79.42
2023-09-03T00:48:30.459Z,79.45
2023-09-03T00:48:51.529Z,79.44
2023-09-03T00:49:12.587Z,79.45
2023-09-03T00:49:33.649Z,79.48
2023-09-03T00:49:54.695Z,79.46
2023-09-03T00:50:15.766Z,79.40
2023-09-03T00:50:36.824Z,79.37
2023-09-03T00:50:57.870Z,79.41
2023-09-03T00:51:18.956Z,79.38
2023-09-03T00:51:40.006Z,79.43
2023-09-03T00:52:01.063Z,79.48
2023-09-03T00:52:22.120Z,79.50
2023-09-03T00:52:43.173Z,79.51
2023-09-03T00:53:04.226Z,79.60
2023-09-03T00:53:25.562Z,79.62
2023-09-03T00:53:46.609Z,79.53
2023-09-03T00:54:07.724Z,79.52
2023-09-03T00:54:28.760Z,79.49
2023-09-03T00:54:49.820Z,79.57
2023-09-03T00:55:10.876Z,79.58
2023-09-03T00:55:31.936Z,79.54
2023-09-03T00:55:52.990Z,79.66
2023-09-03T00:56:14.053Z,79.69
2023-09-03T00:56:35.114Z,79.70
2023-09-03T00:56:56.147Z,79.57
2023-09-03T00:57:17.210Z,79.48
2023-09-03T00:57:38.265Z,79.44
2023-09-03T00:57:59.328Z,79.49
2023-09-03T00:58:20.728Z,79.60
2023-09-03T00:58:42.008Z,79.68
2023-09-03T00:59:03.057Z,79.60
2023-09-03T00:59:24.127Z,79.59
2023-09-03T00:59:45.182Z,79.59
2023-09-03T01:00:06.243Z,79.60
2023-09-03T01:00:27.312Z,79.53
2023-09-03T01:00:48.362Z,79.54
2023-09-03T01:01:09.512Z,79.51
2023-09-03T01:01:30.673Z,79.50
2023-09-03T01:01:51.784Z,79.51
2023-09-03T01:02:13.174Z,79.58
2023-09-03T01:02:34.275Z,79.55
2023-09-03T01:02:55.353Z,79.62
2023-09-03T01:03:16.456Z,79.63
2023-09-03T01:03:37.730Z,79.65
2023-09-03T01:03:59.027Z,79.69
2023-09-03T01:04:20.164Z,79.60
2023-09-03T01:04:41.319Z,79.65
2023-09-03T01:05:02.401Z,79.66
2023-09-03T01:05:23.464Z,79.55
2023-09-03T01:05:44.514Z,79.52
2023-09-03T01:06:05.659Z,79.61
2023-09-03T01:06:26.718Z,79.65
2023-09-03T01:06:47.800Z,79.63
2023-09-03T01:07:08.841Z,79.57
2023-09-03T01:07:29.909Z,79.48
2023-09-03T01:07:50.968Z,79.58
2023-09-03T01:08:12.033Z,79.54
2023-09-03T01:08:33.198Z,79.57
2023-09-03T01:08:54.259Z,79.59
2023-09-03T01:09:15.325Z,79.60
2023-09-03T01:09:36.389Z,79.68
2023-09-03T01:09:57.441Z,79.66
2023-09-03T01:10:18.498Z,79.65
2023-09-03T01:10:39.562Z,79.62
2023-09-03T01:11:00.663Z,79.53
2023-09-03T01:11:21.798Z,79.35
2023-09-03T01:11:42.879Z,79.28
2023-09-03T01:12:03.919Z,79.25
2023-09-03T01:12:24.980Z,79.33
2023-09-03T01:12:46.046Z,79.32
2023-09-03T01:13:07.096Z,79.35
2023-09-03T01:13:28.152Z,79.42
2023-09-03T01:13:49.211Z,79.45
2023-09-03T01:14:10.302Z,79.53
2023-09-03T01:14:31.329Z,79.56
2023-09-03T01:14:52.386Z,79.56
2023-09-03T01:15:13.449Z,79.47
2023-09-03T01:15:34.521Z,79.44
2023-09-03T01:15:55.581Z,79.52
2023-09-03T01:16:16.751Z,79.59
2023-09-03T01:16:37.769Z,79.60
2023-09-03T01:16:58.818Z,79.61
2023-09-03T01:17:19.880Z,79.58
2023-09-03T01:17:40.957Z,79.59
2023-09-03T01:18:02.077Z,79.54
2023-09-03T01:18:23.276Z,79.53
2023-09-03T01:18:44.337Z,79.45
2023-09-03T01:19:05.948Z,79.48
2023-09-03T01:19:27.014Z,79.65
2023-09-03T01:19:48.068Z,79.66
2023-09-03T01:20:09.134Z,79.75
2023-09-03T01:20:30.197Z,79.72
2023-09-03T01:20:51.256Z,79.74
2023-09-03T01:21:12.312Z,79.76
2023-09-03T01:21:33.366Z,79.74
2023-09-03T01:21:54.428Z,79.67
2023-09-03T01:22:15.925Z,79.56
2023-09-03T01:22:36.988Z,79.48
2023-09-03T01:22:58.045Z,79.49
2023-09-03T01:23:19.100Z,79.58
2023-09-03T01:23:40.156Z,79.63
2023-09-03T01:24:01.221Z,79.70
2023-09-03T01:24:22.269Z,79.75
2023-09-03T01:24:43.354Z,79.78
2023-09-03T01:25:04.378Z,79.72
2023-09-03T01:25:25.456Z,79.86
2023-09-03T01:25:46.506Z,79.81
2023-09-03T01:26:07.584Z,79.86
2023-09-03T01:26:28.628Z,79.86
2023-09-03T01:26:49.703Z,79.79
2023-09-03T01:27:10.745Z,79.72
2023-09-03T01:27:31.832Z,79.65
2023-09-03T01:27:52.892Z,79.61
2023-09-03T01:28:13.959Z,79.52
2023-09-03T01:28:35.016Z,79.51
2023-09-03T01:28:56.069Z,79.61
2023-09-03T01:29:17.130Z,79.75
2023-09-03T01:29:38.200Z,79.83
2023-09-03T01:29:59.258Z,79.82
2023-09-03T01:30:20.319Z,79.87
2023-09-03T01:30:41.379Z,79.72
2023-09-03T01:31:02.538Z,79.75
2023-09-03T01:31:23.664Z,79.73
2023-09-03T01:31:44.747Z,79.83
2023-09-03T01:32:05.788Z,79.79
2023-09-03T01:32:26.857Z,79.71
2023-09-03T01:32:47.940Z,79.65
2023-09-03T01:33:09.044Z,79.66
2023-09-03T01:33:30.059Z,79.68
2023-09-03T01:33:51.120Z,79.67
2023-09-03T01:34:12.173Z,79.67
2023-09-03T01:34:33.237Z,79.71
2023-09-03T01:34:54.293Z,79.77
2023-09-03T01:35:15.358Z,79.83
2023-09-03T01:35:36.425Z,79.83
2023-09-03T01:35:57.476Z,79.90
2023-09-03T01:36:18.626Z,79.94
2023-09-03T01:36:39.676Z,79.94
2023-09-03T01:37:00.756Z,79.91
2023-09-03T01:37:21.798Z,79.88
2023-09-03T01:37:42.857Z,79.83
2023-09-03T01:38:03.912Z,79.80
2023-09-03T01:38:24.979Z,79.85
2023-09-03T01:38:46.039Z,79.90
2023-09-03T01:39:07.116Z,79.96
2023-09-03T01:39:28.161Z,80.03
2023-09-03T01:39:49.218Z,80.01
2023-09-03T01:40:10.279Z,79.98
2023-09-03T01:40:31.338Z,79.90
2023-09-03T01:40:52.418Z,79.90
2023-09-03T01:41:13.486Z,79.86
2023-09-03T01:41:34.572Z,79.84
2023-09-03T01:41:55.759Z,79.90
2023-09-03T01:42:16.793Z,79.94
2023-09-03T01:42:37.858Z,79.86
2023-09-03T01:42:58.975Z,79.78
2023-09-03T01:43:20.075Z,79.71
2023-09-03T01:43:41.136Z,79.71
2023-09-03T01:44:02.302Z,79.78
2023-09-03T01:44:23.366Z,79.80
2023-09-03T01:44:44.411Z,79.86
2023-09-03T01:45:05.474Z,79.89
2023-09-03T01:45:26.518Z,79.90
2023-09-03T01:45:47.578Z,79.88
2023-09-03T01:46:08.645Z,79.82
2023-09-03T01:46:29.714Z,79.74
2023-09-03T01:46:50.925Z,79.65
2023-09-03T01:47:11.961Z,79.65
2023-09-03T01:47:33.079Z,79.66
2023-09-03T01:47:54.182Z,79.67
2023-09-03T01:48:15.268Z,79.69
2023-09-03T01:48:36.329Z,79.66
2023-09-03T01:48:57.378Z,79.66
2023-09-03T01:49:18.439Z,79.66
2023-09-03T01:49:39.502Z,79.76
2023-09-03T01:50:00.557Z,79.74
2023-09-03T01:50:21.619Z,79.69
2023-09-03T01:50:42.681Z,79.72
2023-09-03T01:51:03.730Z,79.70
2023-09-03T01:51:24.799Z,79.63
2023-09-03T01:51:45.853Z,79.53
2023-09-03T01:52:06.928Z,79.55
2023-09-03T01:52:27.982Z,79.56
2023-09-03T01:52:49.037Z,79.58
2023-09-03T01:53:10.093Z,79.59
2023-09-03T01:53:31.171Z,79.66
2023-09-03T01:53:52.235Z,79.72
2023-09-03T01:54:13.309Z,79.80
2023-09-03T01:54:34.364Z,79.84
2023-09-03T01:54:55.484Z,79.91
2023-09-03T01:55:16.545Z,79.92
2023-09-03T01:55:37.615Z,80.05
2023-09-03T01:55:58.673Z,80.07
2023-09-03T01:56:19.722Z,80.07
2023-09-03T01:56:40.773Z,80.06
2023-09-03T01:57:01.850Z,80.06
2023-09-03T01:57:22.953Z,80.01
2023-09-03T01:57:43.972Z,79.98
2023-09-03T01:58:05.020Z,79.90
2023-09-03T01:58:26.096Z,79.84
2023-09-03T01:58:47.137Z,79.90
2023-09-03T01:59:08.193Z,79.92
2023-09-03T01:59:29.257Z,79.89
2023-09-03T01:59:50.324Z,79.85
2023-09-03T02:00:11.393Z,79.85
2023-09-03T02:00:32.484Z,79.84
2023-09-03T02:00:54.446Z,79.86
2023-09-03T02:01:15.532Z,79.85
2023-09-03T02:01:36.565Z,79.82
2023-09-03T02:01:57.664Z,79.76
2023-09-03T02:02:18.755Z,79.80
2023-09-03T02:02:39.793Z,79.82
2023-09-03T02:03:00.889Z,79.78
2023-09-03T02:03:21.974Z,79.71
2023-09-03T02:03:43.018Z,79.69
2023-09-03T02:04:04.076Z,79.68
2023-09-03T02:04:25.138Z,79.66
2023-09-03T02:04:46.228Z,79.62
2023-09-03T02:05:07.316Z,79.60
2023-09-03T02:05:28.396Z,79.55
2023-09-03T02:05:49.461Z,79.67
2023-09-03T02:06:10.629Z,79.74
2023-09-03T02:06:31.677Z,79.71
2023-09-03T02:06:52.733Z,79.65
2023-09-03T02:07:13.790Z,79.64
2023-09-03T02:07:34.866Z,79.66
2023-09-03T02:07:55.923Z,79.62
2023-09-03T02:08:16.992Z,79.66
2023-09-03T02:08:38.052Z,79.76
2023-09-03T02:08:59.094Z,79.82
2023-09-03T02:09:20.170Z,79.94
2023-09-03T02:09:41.238Z,80.04
2023-09-03T02:10:02.289Z,80.15
2023-09-03T02:10:23.340Z,80.19
2023-09-03T02:10:44.384Z,80.22
2023-09-03T02:11:05.451Z,80.30
2023-09-03T02:11:26.616Z,80.34
2023-09-03T02:11:47.670Z,80.31
2023-09-03T02:12:08.763Z,80.35
2023-09-03T02:12:29.793Z,80.34
2023-09-03T02:12:50.840Z,80.36
2023-09-03T02:13:11.901Z,80.38
2023-09-03T02:13:33.036Z,80.36
2023-09-03T02:13:54.104Z,80.43
2023-09-03T02:14:15.165Z,80.41
2023-09-03T02:14:36.211Z,80.41
2023-09-03T02:14:57.268Z,80.35
2023-09-03T02:15:18.328Z,80.36
2023-09-03T02:15:39.389Z,80.35
2023-09-03T02:16:00.439Z,80.30
2023-09-03T02:16:21.552Z,80.21
2023-09-03T02:16:42.671Z,80.10
2023-09-03T02:17:03.709Z,80.02
2023-09-03T02:17:24.766Z,79.96
2023-09-03T02:17:45.858Z,79.94
2023-09-03T02:18:07.008Z,79.97
2023-09-03T02:18:28.051Z,79.95
2023-09-03T02:18:49.107Z,79.94
2023-09-03T02:19:10.161Z,79.94
2023-09-03T02:19:31.230Z,79.90
2023-09-03T02:19:52.283Z,79.89
2023-09-03T02:20:13.334Z,79.88
2023-09-03T02:20:34.402Z,79.92
2023-09-03T02:20:55.457Z,79.87
2023-09-03T02:21:16.518Z,79.89
2023-09-03T02:21:37.587Z,79.88
2023-09-03T02:21:58.688Z,79.82
2023-09-03T02:22:19.810Z,79.81
2023-09-03T02:22:40.840Z,79.73
2023-09-03T02:23:01.896Z,79.77
2023-09-03T02:23:22.953Z,79.80
2023-09-03T02:23:44.024Z,79.82
2023-09-03T02:24:05.102Z,79.82
2023-09-03T02:24:26.160Z,79.82
2023-09-03T02:24:47.219Z,79.84
2023-09-03T02:25:08.284Z,79.82
2023-09-03T02:25:29.339Z,79.85
2023-09-03T02:25:50.395Z,79.83
2023-09-03T02:26:11.463Z,79.77
2023-09-03T02:26:32.544Z,79.81
2023-09-03T02:26:53.607Z,79.86
2023-09-03T02:27:14.681Z,79.88
2023-09-03T02:27:35.725Z,79.88
2023-09-03T02:27:56.782Z,79.83
2023-09-03T02:28:17.912Z,79.83
2023-09-03T02:28:39.015Z,79.82
2023-09-03T02:29:00.100Z,79.92
2023-09-03T02:29:21.163Z,79.93
2023-09-03T02:30:03.439Z,80.01
2023-09-03T02:30:24.509Z,80.22
2023-09-03T02:30:45.616Z,80.14
2023-09-03T02:31:06.708Z,80.10
2023-09-03T02:31:27.784Z,79.94
2023-09-03T02:31:48.814Z,80.02
2023-09-03T02:32:09.869Z,80.02
2023-09-03T02:32:31.041Z,80.03
2023-09-03T02:32:52.132Z,79.97
2023-09-03T02:33:13.187Z,79.92
2023-09-03T02:33:34.234Z,79.86
2023-09-03T02:33:55.303Z,79.86
2023-09-03T02:34:16.363Z,79.75
2023-09-03T02:34:37.433Z,79.76
2023-09-03T02:34:58.476Z,79.70
2023-09-03T02:35:19.570Z,79.59
2023-09-03T02:35:40.623Z,79.51
2023-09-03T02:36:01.702Z,79.48
2023-09-03T02:36:22.757Z,79.48
2023-09-03T02:36:43.829Z,79.55
2023-09-03T02:37:04.877Z,79.55
2023-09-03T02:37:25.979Z,79.63
2023-09-03T02:37:47.068Z,79.58
2023-09-03T02:38:08.159Z,79.66
2023-09-03T02:38:29.198Z,79.65
2023-09-03T02:38:50.259Z,79.70
2023-09-03T02:39:11.322Z,79.77
2023-09-03T02:39:32.404Z,79.79
2023-09-03T02:39:53.443Z,79.83
2023-09-03T02:40:14.492Z,79.88
2023-09-03T02:40:35.635Z,79.85
2023-09-03T02:40:56.669Z,79.82
2023-09-03T02:41:17.783Z,79.68
2023-09-03T02:41:38.820Z,79.67
2023-09-03T02:41:59.879Z,79.56
2023-09-03T02:42:20.974Z,79.63
2023-09-03T02:42:42.002Z,79.69
2023-09-03T02:43:03.066Z,79.75
2023-09-03T02:43:24.124Z,79.81
2023-09-03T02:43:45.178Z,79.84
2023-09-03T02:44:06.290Z,79.86
2023-09-03T02:44:27.320Z,79.85
2023-09-03T02:44:48.390Z,79.82
2023-09-03T02:45:09.458Z,79.87
2023-09-03T02:45:30.524Z,79.89
2023-09-03T02:45:51.681Z,79.89
2023-09-03T02:46:12.779Z,79.88
2023-09-03T02:46:33.904Z,79.90
2023-09-03T02:46:54.978Z,79.98
2023-09-03T02:47:18.903Z,79.92
2023-09-03T02:47:41.079Z,79.87
2023-09-03T02:48:02.243Z,79.84
2023-09-03T02:48:23.527Z,79.83
2023-09-03T02:48:44.651Z,79.83
2023-09-03T02:49:05.723Z,79.82
2023-09-03T02:49:26.771Z,79.76
2023-09-03T02:49:47.833Z,79.82
2023-09-03T02:50:08.898Z,79.83
2023-09-03T02:50:29.943Z,79.92
2023-09-03T02:50:51.005Z,79.91
2023-09-03T02:51:12.071Z,80.02
2023-09-03T02:51:33.130Z,80.01
2023-09-03T02:51:54.194Z,79.96
2023-09-03T02:52:15.252Z,79.97
2023-09-03T02:52:36.304Z,79.98
2023-09-03T02:52:57.376Z,80.03
2023-09-03T02:53:18.463Z,80.04
2023-09-03T02:53:39.524Z,80.05
2023-09-03T02:54:00.582Z,80.08
2023-09-03T02:54:21.674Z,79.97
2023-09-03T02:54:42.712Z,79.97
2023-09-03T02:55:03.771Z,80.03
2023-09-03T02:55:24.824Z,80.01
2023-09-03T02:55:45.877Z,80.00
2023-09-03T02:56:06.940Z,80.07
2023-09-03T02:56:28.026Z,80.13
2023-09-03T02:56:49.084Z,80.06
2023-09-03T02:57:10.121Z,79.98
2023-09-03T02:57:31.267Z,79.93
2023-09-03T02:57:52.317Z,79.86
2023-09-03T02:58:13.366Z,79.91
2023-09-03T02:58:34.987Z,79.94
2023-09-03T02:58:56.059Z,79.94
2023-09-03T02:59:17.155Z,79.95
2023-09-03T02:59:38.210Z,79.99
2023-09-03T02:59:59.252Z,79.98
2023-09-03T03:00:20.344Z,80.01
2023-09-03T03:00:41.375Z,80.06
2023-09-03T03:01:02.428Z,79.93
2023-09-03T03:01:23.527Z,79.83
2023-09-03T03:01:44.705Z,79.81
2023-09-03T03:02:05.776Z,79.87
2023-09-03T03:02:26.825Z,79.87
2023-09-03T03:02:47.896Z,79.91
2023-09-03T03:03:09.035Z,79.96
2023-09-03T03:03:30.146Z,80.02
2023-09-03T03:03:51.198Z,79.99
2023-09-03T03:04:12.274Z,79.99
2023-09-03T03:04:33.324Z,80.05
2023-09-03T03:04:54.380Z,79.97
2023-09-03T03:05:15.455Z,79.94
2023-09-03T03:05:36.562Z,79.81
2023-09-03T03:05:57.688Z,79.73
2023-09-03T03:06:18.732Z,79.81
2023-09-03T03:06:39.786Z,79.87
2023-09-03T03:07:00.850Z,80.01
2023-09-03T03:07:21.905Z,80.04
2023-09-03T03:07:42.956Z,80.06
2023-09-03T03:08:04.048Z,80.06
2023-09-03T03:08:25.096Z,80.07
2023-09-03T03:08:46.323Z,80.14
2023-09-03T03:09:07.384Z,80.09
2023-09-03T03:09:28.471Z,80.04
2023-09-03T03:09:49.519Z,80.03
2023-09-03T03:10:10.579Z,80.09
2023-09-03T03:10:31.636Z,80.17
2023-09-03T03:10:52.696Z,80.19
2023-09-03T03:11:13.750Z,80.21
2023-09-03T03:11:34.812Z,80.18
2023-09-03T03:11:55.855Z,80.14
2023-09-03T03:12:16.940Z,80.19
2023-09-03T03:12:38.020Z,80.10
2023-09-03T03:12:59.059Z,80.12
2023-09-03T03:13:20.104Z,80.26
2023-09-03T03:13:41.192Z,80.19
2023-09-03T03:14:02.240Z,80.17
2023-09-03T03:14:23.297Z,80.27
2023-09-03T03:14:44.371Z,80.32
2023-09-03T03:15:05.435Z,80.28
2023-09-03T03:15:26.591Z,80.30
2023-09-03T03:15:47.751Z,80.38
2023-09-03T03:16:08.924Z,80.49
2023-09-03T03:16:30.140Z,80.56
2023-09-03T03:16:51.207Z,80.66
2023-09-03T03:17:12.291Z,80.60
2023-09-03T03:17:33.344Z,80.62
2023-09-03T03:17:54.430Z,80.66
2023-09-03T03:18:15.499Z,80.66
2023-09-03T03:18:36.566Z,80.69
2023-09-03T03:18:57.671Z,80.68
2023-09-03T03:19:18.756Z,80.68
2023-09-03T03:19:39.801Z,80.62
2023-09-03T03:20:00.850Z,80.60
2023-09-03T03:20:21.923Z,80.57
2023-09-03T03:20:43.017Z,80.46
2023-09-03T03:21:04.093Z,80.38
2023-09-03T03:21:25.144Z,80.37
2023-09-03T03:21:46.207Z,80.43
2023-09-03T03:22:07.273Z,80.50
2023-09-03T03:22:28.333Z,80.43
2023-09-03T03:22:49.413Z,80.39
2023-09-03T03:23:10.465Z,80.36
2023-09-03T03:23:31.523Z,80.43
2023-09-03T03:23:52.655Z,80.32
2023-09-03T03:24:13.704Z,80.28
2023-09-03T03:24:34.775Z,80.20
2023-09-03T03:24:55.852Z,80.22
2023-09-03T03:25:16.912Z,80.15
2023-09-03T03:25:37.967Z,80.15
2023-09-03T03:25:59.006Z,80.05
2023-09-03T03:26:20.080Z,80.02
2023-09-03T03:26:41.176Z,79.94
2023-09-03T03:27:02.226Z,80.04
2023-09-03T03:27:23.296Z,80.05
2023-09-03T03:27:44.361Z,79.97
2023-09-03T03:28:05.405Z,79.87
2023-09-03T03:28:26.456Z,79.96
2023-09-03T03:28:47.561Z,80.00
2023-09-03T03:29:08.623Z,79.95
2023-09-03T03:29:29.681Z,79.91
2023-09-03T03:29:50.751Z,79.87
2023-09-03T03:30:11.809Z,79.85
2023-09-03T03:30:32.871Z,79.86
2023-09-03T03:30:53.930Z,79.86
2023-09-03T03:31:15.013Z,79.97
2023-09-03T03:31:36.173Z,80.03
2023-09-03T03:31:57.249Z,80.03
2023-09-03T03:32:20.349Z,79.98
2023-09-03T03:32:41.598Z,80.06
2023-09-03T03:33:02.633Z,80.06
2023-09-03T03:33:23.717Z,80.04
2023-09-03T03:33:44.784Z,80.00
2023-09-03T03:34:05.840Z,79.97
2023-09-03T03:34:27.314Z,80.01
2023-09-03T03:34:48.380Z,80.07
2023-09-03T03:35:09.415Z,80.10
2023-09-03T03:35:30.470Z,80.09
2023-09-03T03:35:51.534Z,80.10
2023-09-03T03:36:12.600Z,80.08
2023-09-03T03:36:33.716Z,80.05
2023-09-03T03:36:54.879Z,80.07
2023-09-03T03:37:15.910Z,80.12
2023-09-03T03:37:36.976Z,80.10
2023-09-03T03:37:58.034Z,80.14
2023-09-03T03:38:19.323Z,80.24
2023-09-03T03:38:40.514Z,80.30
2023-09-03T03:39:01.602Z,80.28
2023-09-03T03:39:22.650Z,80.28
2023-09-03T03:39:43.711Z,80.32
2023-09-03T03:40:04.770Z,80.32
2023-09-03T03:40:26.566Z,80.34
2023-09-03T03:40:47.620Z,80.32
2023-09-03T03:41:08.680Z,80.18
2023-09-03T03:41:29.736Z,80.13
2023-09-03T03:41:50.887Z,80.15
2023-09-03T03:42:11.952Z,80.20
2023-09-03T03:42:33.008Z,80.31
2023-09-03T03:42:54.067Z,80.27
2023-09-03T03:43:15.114Z,80.27
2023-09-03T03:43:36.218Z,80.31
2023-09-03T03:43:57.257Z,80.37
2023-09-03T03:44:18.330Z,80.38
2023-09-03T03:44:39.392Z,80.35
2023-09-03T03:45:00.423Z,80.34
2023-09-03T03:45:21.530Z,80.38
2023-09-03T03:45:42.608Z,80.42
2023-09-03T03:46:03.698Z,80.31
2023-09-03T03:46:24.735Z,80.32
2023-09-03T03:46:45.785Z,80.31
2023-09-03T03:47:06.920Z,80.24
2023-09-03T03:47:27.975Z,80.19
2023-09-03T03:47:49.093Z,80.20
2023-09-03T03:48:10.145Z,80.17
2023-09-03T03:48:31.174Z,80.12
2023-09-03T03:48:52.242Z,80.10
2023-09-03T03:49:13.288Z,80.18
2023-09-03T03:49:34.371Z,80.14
2023-09-03T03:49:55.424Z,80.19
2023-09-03T03:50:16.485Z,80.18
2023-09-03T03:50:37.562Z,80.27
2023-09-03T03:50:58.727Z,80.26
2023-09-03T03:51:19.831Z,80.22
2023-09-03T03:51:40.854Z,80.17
2023-09-03T03:52:01.936Z,80.19
2023-09-03T03:52:22.978Z,80.14
2023-09-03T03:52:44.061Z,80.09
2023-09-03T03:53:05.108Z,80.01
2023-09-03T03:53:26.164Z,79.94
2023-09-03T03:53:47.257Z,80.04
2023-09-03T03:54:08.316Z,80.05
2023-09-03T03:54:29.379Z,80.14
2023-09-03T03:54:50.439Z,80.13
2023-09-03T03:55:11.509Z,80.13
2023-09-03T03:55:32.564Z,80.24
2023-09-03T03:55:53.611Z,80.23
2023-09-03T03:56:14.663Z,80.18
2023-09-03T03:56:35.729Z,80.20
2023-09-03T03:56:56.786Z,80.21
2023-09-03T03:57:17.873Z,80.35
2023-09-03T03:57:38.910Z,80.37
2023-09-03T03:58:00.006Z,80.41
2023-09-03T03:58:21.274Z,80.46
2023-09-03T03:58:42.585Z,80.48
2023-09-03T03:59:03.645Z,80.45
2023-09-03T03:59:24.714Z,80.26
2023-09-03T03:59:45.785Z,80.17
2023-09-03T04:00:06.835Z,80.23
2023-09-03T04:00:27.924Z,80.36
2023-09-03T04:00:49.012Z,80.37
2023-09-03T04:01:10.184Z,80.29
2023-09-03T04:01:31.328Z,80.20
2023-09-03T04:01:52.477Z,80.22
2023-09-03T04:02:13.510Z,80.29
2023-09-03T04:02:34.586Z,80.31
2023-09-03T04:02:55.743Z,80.34
2023-09-03T04:03:16.907Z,80.30
2023-09-03T04:03:38.086Z,80.31
2023-09-03T04:03:59.287Z,80.30
2023-09-03T04:04:20.358Z,80.35
2023-09-03T04:04:41.408Z,80.32
2023-09-03T04:05:02.468Z,80.32
2023-09-03T04:05:23.532Z,80.25
2023-09-03T04:05:44.571Z,80.26
2023-09-03T04:06:05.728Z,80.27
2023-09-03T04:06:26.794Z,80.23
2023-09-03T04:06:47.841Z,80.20
2023-09-03T04:07:08.885Z,80.15
2023-09-03T04:07:29.942Z,80.15
2023-09-03T04:07:51.028Z,80.10
2023-09-03T04:08:12.101Z,80.14
2023-09-03T04:08:33.169Z,80.11
2023-09-03T04:08:54.220Z,80.00
2023-09-03T04:09:15.291Z,79.94
2023-09-03T04:09:36.379Z,79.83
2023-09-03T04:09:57.415Z,79.74
2023-09-03T04:10:18.465Z,79.85
2023-09-03T04:10:39.592Z,79.86
2023-09-03T04:11:00.768Z,79.91
2023-09-03T04:11:21.835Z,79.85
2023-09-03T04:11:42.889Z,79.84
2023-09-03T04:12:03.950Z,79.84
2023-09-03T04:12:25.435Z,79.74
2023-09-03T04:12:46.509Z,79.82
2023-09-03T04:13:07.650Z,79.78
2023-09-03T04:13:28.698Z,79.78
2023-09-03T04:13:49.758Z,79.75
2023-09-03T04:14:10.809Z,79.65
2023-09-03T04:14:31.855Z,79.49
2023-09-03T04:14:52.931Z,79.42
2023-09-03T04:15:13.981Z,79.38
2023-09-03T04:15:35.038Z,79.37
2023-09-03T04:15:56.100Z,79.36
2023-09-03T04:16:17.284Z,79.37
2023-09-03T04:16:38.417Z,79.35
2023-09-03T04:16:59.488Z,79.37
2023-09-03T04:17:20.512Z,79.38
2023-09-03T04:17:41.611Z,79.52
2023-09-03T04:18:02.719Z,79.60
2023-09-03T04:18:23.818Z,79.55
2023-09-03T04:18:44.885Z,79.53
2023-09-03T04:19:06.781Z,79.60
2023-09-03T04:19:27.849Z,79.73
2023-09-03T04:19:49.017Z,79.76
2023-09-03T04:20:10.447Z,79.91
2023-09-03T04:20:31.499Z,79.92
2023-09-03T04:20:52.582Z,79.94
2023-09-03T04:21:13.637Z,79.84
2023-09-03T04:21:34.699Z,79.79
2023-09-03T04:21:55.764Z,79.80
2023-09-03T04:22:16.911Z,79.86
2023-09-03T04:22:37.973Z,79.90
2023-09-03T04:22:59.028Z,79.92
2023-09-03T04:23:20.149Z,79.96
2023-09-03T04:23:41.221Z,79.87
2023-09-03T04:24:02.279Z,79.91
2023-09-03T04:24:23.349Z,79.95
2023-09-03T04:24:44.401Z,79.97
2023-09-03T04:25:05.471Z,80.03
2023-09-03T04:25:26.541Z,79.90
2023-09-03T04:25:47.607Z,79.77
2023-09-03T04:26:08.651Z,79.74
2023-09-03T04:26:29.736Z,79.79
2023-09-03T04:26:50.767Z,79.85
2023-09-03T04:27:11.900Z,79.83
2023-09-03T04:27:32.958Z,79.81
2023-09-03T04:27:54.025Z,79.87
2023-09-03T04:28:15.108Z,79.94
2023-09-03T04:28:36.156Z,79.99
2023-09-03T04:28:57.201Z,80.07
2023-09-03T04:29:18.255Z,80.13
2023-09-03T04:29:39.318Z,80.07
2023-09-03T04:30:00.393Z,80.03
2023-09-03T04:30:21.472Z,80.13
2023-09-03T04:30:42.570Z,80.17
2023-09-03T04:31:03.694Z,80.26
2023-09-03T04:31:24.835Z,80.27
2023-09-03T04:31:45.955Z,80.24